Farmville, VA

4:43 AM EST on February 14, 2016 (GMT -0500)
Hampden-Sydney College | | Change Station
CLOSE
Current Station
Personal Weather Station
Location: Hampden-Sydney, VA
Elevation: 510 ft
Nearby Weather Stations
Active Advisory: Winter Storm Warning

Elev 510 ft 37.24 °N, 78.46 °W | Updated 2 seconds ago

Clear
Clear
10.4 °F
Feels Like 10 °F
N
0.0
Wind Variable Wind from NNE
Gusts 3.0 mph

Today
High -- | Low -- °F
--% Chance of Precip.
Yesterday
High -- | Low -- °F
Precip. -- in
Pressure 30.49 in
Visibility 10.0 miles
Clouds Clear
Windchill 10 °F
Dew Point -2 °F
Humidity 56%
Rainfall 0.00 in
Snow Depth Not available.
7:04 AM 5:51 PM
Waxing Crescent, 40% visible
METAR KFVX 140915Z AUTO 00000KT 10SM CLR M13/M16 A3049 RMK AO2 T11261160
Pressure 30.49 in
Visibility 10.0 miles
Clouds Clear
Windchill 10 °F
Dew Point -2 °F
Humidity 56%
Rainfall 0.00 in
Snow Depth Not available.
7:04 AM 5:51 PM
Waxing Crescent, 40% visible
METAR KFVX 140915Z AUTO 00000KT 10SM CLR M13/M16 A3049 RMK AO2 T11261160

10-Day Weather Forecast

Almanac

Astronomy

Feb. 14, 2016 Rise Set
Actual Time
Civil Twilight
Nautical Twilight
Astronomical Twilight
Moon
Length of Visible Light
Length of Day
Tomorrow will be .
, % of the Moon is Illuminated

Today's Extremes

State Highs State Lows

Community

WunderPhotos

Upload Photos

1,892,761 photos uploaded!

WunderBlog® & News

Nearby

Air Quality

  Air Quality AQ Index Pollutant
Not available.

Snow Depth

Station Depth Elevation

Earthquake Activity

City Distance Mag. Time & Date
Minimum magnitude displayed is 2.5.

Coastal Water Temperatures

Place Temperature

Stations

Nearby Weather Stations

Station Location Temp. Windchill Dew Point Humidity Wind Precip. Elev Updated Type
                   

Watches & Warnings

Winter Storm Warning
Issued: 3:54 AM EST Feb. 14, 2016 – National Weather Service

... Winter Storm Warning in effect from midnight tonight to 4 am
EST Tuesday...

The National Weather Service in Wakefield has issued a Winter
Storm Warning for the Virginia Piedmont... which is in effect from
midnight tonight to 4 am EST Tuesday. The Winter Storm Watch is no
longer in effect.

* Areas affected: central Virginia Piedmont.

* Hazards: snow... sleet and freezing rain.

* Accumulations: three to four inches of snow... and up two tenths
of an inch of ice.

* Temperatures: lows Sunday night around 20. Highs late Monday in
the lower 30s... .rising to the mid 30s late Monday night.

* Timing: snow overspreading the area late Sunday evening... then
continuing through the morning hours Monday. The snow is
expected to change to sleet and freezing rain Monday afternoon
and evening before changing to all rain late Monday night.

* Impacts: hazardous travel due to snow and ice covered roads.

Precautionary/preparedness actions...

A Winter Storm Warning means significant amounts of snow...
sleet... and ice are expected or occurring. Strong winds are also
possible. This will make travel very hazardous or impossible.